createdAt,value
2022-11-08T00:02:32.060Z,78.44
2022-11-08T00:05:39.708Z,78.36
2022-11-08T00:08:47.513Z,78.19
2022-11-08T00:11:55.426Z,78.32
2022-11-08T00:14:46.355Z,78.15
2022-11-08T00:17:35.752Z,78.17
2022-11-08T00:20:25.224Z,78.14
2022-11-08T00:23:14.803Z,78.25
2022-11-08T00:26:04.231Z,78.35
2022-11-08T00:28:53.699Z,78.46
2022-11-08T00:31:44.132Z,78.42
2022-11-08T00:34:33.643Z,78.49
2022-11-08T00:37:23.454Z,78.68
2022-11-08T00:40:14.063Z,78.79
2022-11-08T00:43:03.513Z,78.83
2022-11-08T00:45:53.002Z,79.04
2022-11-08T00:48:42.584Z,79.03
2022-11-08T00:51:32.231Z,79.11
2022-11-08T00:54:22.258Z,79.19
2022-11-08T00:57:11.781Z,79.33
2022-11-08T01:00:01.326Z,79.30
2022-11-08T01:03:11.074Z,79.35
2022-11-08T01:06:05.848Z,79.21
2022-11-08T01:08:55.795Z,78.83
2022-11-08T01:11:47.265Z,78.56
2022-11-08T01:14:37.948Z,78.47
2022-11-08T01:17:27.404Z,78.29
2022-11-08T01:20:17.311Z,78.11
2022-11-08T01:23:07.442Z,77.96
2022-11-08T01:25:57.000Z,77.73
2022-11-08T01:28:47.113Z,77.50
2022-11-08T01:31:36.752Z,77.54
2022-11-08T01:34:26.327Z,77.22
2022-11-08T01:37:15.968Z,77.03
2022-11-08T01:40:07.591Z,76.84
2022-11-08T01:42:57.843Z,76.85
2022-11-08T01:46:28.066Z,76.71
2022-11-08T01:49:32.363Z,76.69
2022-11-08T01:52:31.370Z,76.60
2022-11-08T01:55:25.251Z,76.71
2022-11-08T01:58:18.283Z,76.67
2022-11-08T02:01:08.470Z,76.77
2022-11-08T02:03:59.748Z,76.83
2022-11-08T02:06:50.210Z,77.02
2022-11-08T02:09:42.440Z,77.09
2022-11-08T02:12:31.919Z,77.24
2022-11-08T02:15:24.878Z,77.51
2022-11-08T02:18:16.609Z,77.53
2022-11-08T02:21:12.063Z,77.68
2022-11-08T02:24:06.866Z,78.01
2022-11-08T02:26:57.596Z,78.30
2022-11-08T02:29:45.863Z,78.43
2022-11-08T02:32:39.537Z,78.49
2022-11-08T02:35:28.994Z,78.38
2022-11-08T02:38:19.634Z,78.43
2022-11-08T02:41:09.103Z,78.52
2022-11-08T02:43:58.980Z,78.48
2022-11-08T02:46:48.493Z,78.56
2022-11-08T02:49:38.034Z,78.66
2022-11-08T02:52:27.502Z,78.72
2022-11-08T02:55:17.207Z,78.74
2022-11-08T02:58:06.856Z,78.88
2022-11-08T03:00:56.406Z,78.77
2022-11-08T03:03:46.052Z,78.58
2022-11-08T03:06:35.542Z,78.61
2022-11-08T03:09:26.502Z,78.74
2022-11-08T03:12:16.040Z,78.93
2022-11-08T03:15:08.001Z,79.22
2022-11-08T03:17:59.275Z,79.49
2022-11-08T03:20:48.685Z,79.86
2022-11-08T03:23:38.316Z,80.24
2022-11-08T03:26:27.736Z,80.55
2022-11-08T03:29:17.371Z,80.91
2022-11-08T03:32:06.938Z,81.11
2022-11-08T03:34:59.065Z,81.27
2022-11-08T03:37:52.101Z,81.42
2022-11-08T03:40:41.432Z,81.48
2022-11-08T03:43:31.031Z,81.54
2022-11-08T03:46:20.495Z,81.65
2022-11-08T03:49:10.451Z,81.64
2022-11-08T03:51:59.959Z,81.62
2022-11-08T03:54:49.552Z,81.55
2022-11-08T03:57:39.148Z,81.49
2022-11-08T04:00:29.892Z,81.56
2022-11-08T04:03:19.288Z,81.64
2022-11-08T04:06:09.416Z,81.78
2022-11-08T04:08:58.877Z,81.76
2022-11-08T04:12:06.628Z,81.82
2022-11-08T04:15:14.424Z,81.84
2022-11-08T04:18:22.368Z,82.00
2022-11-08T04:21:21.137Z,82.14
2022-11-08T04:24:10.551Z,82.41
2022-11-08T04:27:00.991Z,82.35
2022-11-08T04:29:49.303Z,82.39
2022-11-08T04:32:38.710Z,82.57
2022-11-08T04:35:28.105Z,82.71
2022-11-08T04:38:18.272Z,82.75
2022-11-08T04:41:10.684Z,83.10
2022-11-08T04:43:59.686Z,83.36
2022-11-08T04:46:49.156Z,83.63
2022-11-08T04:49:38.563Z,83.88
2022-11-08T04:52:28.073Z,84.05
2022-11-08T04:55:17.680Z,84.19
2022-11-08T04:58:07.087Z,84.25
2022-11-08T05:01:00.995Z,84.30
2022-11-08T05:03:51.924Z,84.21
2022-11-08T05:06:41.021Z,84.13
2022-11-08T05:09:30.510Z,84.11
2022-11-08T05:12:19.922Z,84.10
2022-11-08T05:15:11.543Z,84.01
2022-11-08T05:18:00.893Z,84.06
2022-11-08T05:21:13.847Z,84.12
2022-11-08T05:24:05.406Z,84.30
2022-11-08T05:26:54.773Z,84.75
2022-11-08T05:29:44.239Z,85.21
2022-11-08T05:32:33.627Z,85.45
2022-11-08T05:35:23.262Z,85.59
2022-11-08T05:38:12.845Z,85.75
2022-11-08T05:41:04.325Z,85.96
2022-11-08T05:43:55.164Z,86.19
2022-11-08T05:46:44.635Z,86.36
2022-11-08T05:49:34.152Z,86.57
2022-11-08T05:52:23.774Z,86.86
2022-11-08T05:55:13.278Z,86.87
2022-11-08T05:58:05.450Z,87.23
2022-11-08T06:01:01.376Z,87.64
2022-11-08T06:03:50.495Z,87.94
2022-11-08T06:06:40.123Z,88.27
2022-11-08T06:09:29.479Z,88.62
2022-11-08T06:12:19.538Z,88.95
2022-11-08T06:15:10.189Z,89.22
2022-11-08T06:18:03.743Z,89.46
2022-11-08T06:20:52.681Z,89.65
2022-11-08T06:23:42.686Z,89.93
2022-11-08T06:26:31.703Z,90.17
2022-11-08T06:29:21.116Z,90.24
2022-11-08T06:32:10.622Z,90.40
2022-11-08T06:35:00.043Z,90.54
2022-11-08T06:37:49.515Z,90.74
2022-11-08T06:40:39.364Z,90.80
2022-11-08T06:43:29.220Z,90.99
2022-11-08T06:46:18.880Z,91.16
2022-11-08T06:49:08.309Z,91.23
2022-11-08T06:51:57.872Z,91.37
2022-11-08T06:54:47.231Z,91.42
2022-11-08T06:57:36.756Z,91.57
2022-11-08T07:00:26.867Z,91.69
2022-11-08T07:03:17.945Z,91.83
2022-11-08T07:06:08.891Z,91.86
2022-11-08T07:08:58.571Z,91.77
2022-11-08T07:11:47.980Z,91.72
2022-11-08T07:14:39.404Z,91.62
2022-11-08T07:17:29.775Z,91.63
2022-11-08T07:20:23.675Z,91.60
2022-11-08T07:23:13.111Z,91.78
2022-11-08T07:26:03.864Z,91.71
2022-11-08T07:28:53.158Z,91.57
2022-11-08T07:31:45.299Z,91.42
2022-11-08T07:34:35.759Z,91.18
2022-11-08T07:37:26.906Z,91.19
2022-11-08T07:40:17.024Z,91.10
2022-11-08T07:43:13.671Z,90.83
2022-11-08T07:46:05.004Z,90.70
2022-11-08T07:48:54.458Z,90.48
2022-11-08T07:51:44.030Z,90.18
2022-11-08T07:54:33.586Z,89.98
2022-11-08T07:57:25.238Z,89.76
2022-11-08T08:00:16.380Z,89.55
2022-11-08T08:03:08.217Z,89.31
2022-11-08T08:06:02.948Z,89.07
2022-11-08T08:08:52.503Z,88.87
2022-11-08T08:11:42.942Z,88.50
2022-11-08T08:14:32.510Z,88.29
2022-11-08T08:17:22.380Z,88.04
2022-11-08T08:20:17.089Z,87.70
2022-11-08T08:23:17.569Z,87.53
2022-11-08T08:26:24.546Z,87.28
2022-11-08T08:29:17.895Z,87.05
2022-11-08T08:32:11.084Z,86.87
2022-11-08T08:35:02.402Z,86.54
2022-11-08T08:37:57.120Z,86.43
2022-11-08T08:41:00.372Z,86.18
2022-11-08T08:43:51.297Z,86.01
2022-11-08T08:46:40.377Z,85.78
2022-11-08T08:49:38.049Z,85.68
2022-11-08T08:53:13.952Z,85.43
2022-11-08T08:56:15.295Z,85.02
2022-11-08T09:02:26.087Z,84.50
2022-11-08T09:05:21.567Z,84.19
2022-11-08T09:08:23.385Z,84.02
2022-11-08T09:11:47.713Z,83.76
2022-11-08T09:14:43.146Z,83.74
2022-11-08T09:18:02.969Z,83.56
2022-11-08T09:21:00.900Z,83.37
2022-11-08T09:23:50.291Z,83.09
2022-11-08T09:26:39.793Z,82.75
2022-11-08T09:29:29.265Z,82.37
2022-11-08T09:32:24.772Z,82.00
2022-11-08T09:35:23.679Z,82.09
2022-11-08T09:38:13.026Z,82.00
2022-11-08T09:41:25.688Z,81.90
2022-11-08T09:44:26.795Z,81.61
2022-11-08T09:47:24.002Z,81.46
2022-11-08T09:50:20.199Z,81.35
2022-11-08T09:53:18.193Z,80.71
2022-11-08T09:56:16.658Z,80.27
2022-11-08T09:59:20.045Z,79.97
2022-11-08T10:02:18.047Z,79.00
2022-11-08T10:05:15.244Z,78.66
2022-11-08T10:08:11.205Z,78.24
2022-11-08T10:11:18.613Z,77.65
2022-11-08T10:14:25.065Z,77.40
2022-11-08T10:17:37.795Z,77.29
2022-11-08T10:20:39.044Z,77.12
2022-11-08T10:23:39.657Z,77.07
2022-11-08T10:26:35.417Z,76.36
2022-11-08T10:29:31.701Z,76.04
2022-11-08T10:32:23.055Z,75.79
2022-11-08T10:35:24.466Z,75.38
2022-11-08T10:38:25.489Z,75.34
2022-11-08T10:41:21.367Z,75.04
2022-11-08T10:44:15.366Z,74.10
2022-11-08T10:47:07.594Z,73.31
2022-11-08T10:50:02.483Z,73.13
2022-11-08T10:52:58.280Z,73.06
2022-11-08T10:55:55.884Z,72.68
2022-11-08T10:58:44.961Z,72.02
2022-11-08T11:01:34.524Z,71.56
2022-11-08T11:04:28.686Z,70.27
2022-11-08T11:07:31.034Z,70.11
2022-11-08T11:10:25.546Z,69.07
2022-11-08T11:13:19.224Z,69.01
2022-11-08T11:16:14.348Z,68.88
2022-11-08T11:19:06.395Z,69.48
2022-11-08T11:22:01.689Z,69.89
2022-11-08T11:24:54.231Z,70.22
2022-11-08T11:27:44.121Z,70.14
2022-11-08T11:30:34.838Z,70.78
2022-11-08T11:33:25.726Z,70.72
2022-11-08T11:36:19.940Z,70.84
2022-11-08T11:39:16.219Z,71.02
2022-11-08T11:42:39.212Z,70.40
2022-11-08T11:45:28.840Z,63.65
2022-11-08T11:48:21.854Z,57.39
2022-11-08T11:51:11.628Z,50.98
2022-11-08T11:54:05.038Z,47.36
2022-11-08T11:57:01.201Z,44.64
2022-11-08T12:00:01.544Z,43.53
2022-11-08T12:03:22.132Z,40.34
2022-11-08T12:06:28.389Z,39.98
2022-11-08T12:09:33.379Z,39.62
2022-11-08T12:12:37.855Z,39.60
2022-11-08T12:15:34.778Z,39.61
2022-11-08T12:18:43.882Z,40.36
2022-11-08T12:21:40.118Z,40.03
2022-11-08T12:24:42.630Z,38.00
2022-11-08T12:27:45.662Z,36.45
2022-11-08T12:30:47.155Z,35.15
2022-11-08T12:33:46.490Z,32.63
2022-11-08T12:36:45.355Z,32.02
2022-11-08T12:39:40.346Z,31.59
2022-11-08T12:42:47.689Z,31.76
2022-11-08T12:45:51.513Z,33.10
2022-11-08T12:49:01.231Z,35.40
2022-11-08T12:52:08.563Z,37.32
2022-11-08T12:55:03.043Z,39.49
2022-11-08T12:58:00.307Z,41.35
2022-11-08T13:00:52.949Z,42.03
2022-11-08T13:04:18.508Z,42.17
2022-11-08T13:07:18.043Z,43.32
2022-11-08T13:10:16.661Z,45.01
2022-11-08T13:13:18.920Z,47.01
2022-11-08T13:16:11.302Z,48.69
2022-11-08T13:19:03.850Z,49.86
2022-11-08T13:21:53.739Z,50.88
2022-11-08T13:24:45.086Z,51.86
2022-11-08T13:27:37.087Z,52.98
2022-11-08T13:30:43.446Z,54.14
2022-11-08T13:33:34.200Z,55.33
2022-11-08T13:36:33.354Z,56.11
2022-11-08T13:39:45.841Z,57.03
2022-11-08T13:42:58.794Z,57.79
2022-11-08T13:45:49.318Z,58.67
2022-11-08T13:49:05.502Z,59.23
2022-11-08T13:52:26.160Z,59.40
2022-11-08T13:55:46.295Z,57.82
2022-11-08T13:58:38.327Z,55.78
2022-11-08T14:01:59.716Z,54.56
2022-11-08T14:04:49.359Z,53.03
2022-11-08T14:07:46.098Z,53.02
2022-11-08T14:10:47.280Z,53.08
2022-11-08T14:13:50.111Z,53.95
2022-11-08T14:16:49.364Z,53.87
2022-11-08T14:19:40.667Z,53.04
2022-11-08T14:22:31.787Z,51.59
2022-11-08T14:25:30.533Z,51.36
2022-11-08T14:28:27.440Z,51.35
2022-11-08T14:31:28.682Z,51.56
2022-11-08T14:34:37.658Z,51.83
2022-11-08T14:37:28.232Z,53.20
2022-11-08T14:40:20.718Z,53.28
2022-11-08T14:43:12.880Z,53.23
2022-11-08T14:46:12.735Z,54.22
2022-11-08T14:49:11.236Z,55.23
2022-11-08T14:52:15.001Z,56.13
2022-11-08T14:55:07.786Z,57.02
2022-11-08T14:57:57.181Z,57.64
2022-11-08T15:00:49.150Z,58.32
2022-11-08T15:03:44.391Z,57.76
2022-11-08T15:06:36.789Z,57.14
2022-11-08T15:09:30.673Z,57.46
2022-11-08T15:12:23.191Z,57.98
2022-11-08T15:15:26.675Z,58.56
2022-11-08T15:18:17.833Z,58.91
2022-11-08T15:21:21.997Z,58.31
2022-11-08T15:24:14.502Z,57.67
2022-11-08T15:27:18.049Z,58.25
2022-11-08T15:30:15.362Z,58.82
2022-11-08T15:33:22.715Z,59.40
2022-11-08T15:36:14.168Z,59.51
2022-11-08T15:39:06.504Z,59.51
2022-11-08T15:42:04.260Z,59.68
2022-11-08T15:45:04.397Z,60.29
2022-11-08T15:48:00.691Z,60.92
2022-11-08T15:50:50.679Z,61.60
2022-11-08T15:53:41.456Z,62.10
2022-11-08T15:56:31.064Z,62.78
2022-11-08T15:59:23.395Z,63.16
2022-11-08T16:02:14.450Z,63.35
2022-11-08T16:05:16.075Z,63.45
2022-11-08T16:08:07.007Z,63.60
2022-11-08T16:11:00.827Z,63.91
2022-11-08T16:13:51.572Z,64.38
2022-11-08T16:16:44.276Z,64.65
2022-11-08T16:19:33.913Z,65.15
2022-11-08T16:22:23.607Z,65.43
2022-11-08T16:25:13.445Z,65.76
2022-11-08T16:28:08.931Z,65.88
2022-11-08T16:30:58.696Z,66.12
2022-11-08T16:33:49.297Z,66.22
2022-11-08T16:36:38.576Z,66.33
2022-11-08T16:39:28.733Z,66.38
2022-11-08T16:42:18.411Z,66.33
2022-11-08T16:45:09.591Z,66.32
2022-11-08T16:47:58.965Z,66.59
2022-11-08T16:50:48.705Z,66.61
2022-11-08T16:53:38.006Z,66.65
2022-11-08T16:56:27.366Z,66.81
2022-11-08T16:59:16.790Z,67.10
2022-11-08T17:02:14.687Z,67.20
2022-11-08T17:05:12.065Z,67.43
2022-11-08T17:08:01.553Z,67.78
2022-11-08T17:10:50.946Z,67.84
2022-11-08T17:13:40.845Z,68.04
2022-11-08T17:16:30.530Z,68.26
2022-11-08T17:19:19.946Z,68.21
2022-11-08T17:22:09.397Z,68.07
2022-11-08T17:24:58.795Z,68.07
2022-11-08T17:27:49.370Z,67.97
2022-11-08T17:30:43.490Z,67.91
2022-11-08T17:33:32.962Z,67.91
2022-11-08T17:36:22.581Z,68.00
2022-11-08T17:39:13.479Z,68.04
2022-11-08T17:42:02.866Z,68.13
2022-11-08T17:44:53.960Z,68.39
2022-11-08T17:47:43.455Z,68.35
2022-11-08T17:50:33.129Z,68.56
2022-11-08T17:53:23.106Z,68.63
2022-11-08T17:56:12.651Z,68.88
2022-11-08T17:59:03.512Z,68.94
2022-11-08T18:01:52.658Z,69.03
2022-11-08T18:04:42.157Z,69.14
2022-11-08T18:07:31.483Z,69.24
2022-11-08T18:10:20.975Z,69.44
2022-11-08T18:13:11.256Z,69.42
2022-11-08T18:16:13.295Z,69.52
2022-11-08T18:19:02.466Z,69.79
2022-11-08T18:21:51.867Z,70.10
2022-11-08T18:24:44.805Z,70.31
2022-11-08T18:27:38.297Z,70.42
2022-11-08T18:30:27.905Z,70.51
2022-11-08T18:33:18.192Z,70.88
2022-11-08T18:36:12.981Z,70.98
2022-11-08T18:39:03.319Z,71.41
2022-11-08T18:41:52.942Z,71.68
2022-11-08T18:44:42.609Z,71.94
2022-11-08T18:47:32.844Z,72.15
2022-11-08T18:50:22.377Z,72.32
2022-11-08T18:53:11.837Z,72.60
2022-11-08T18:56:01.455Z,72.87
2022-11-08T18:58:52.156Z,72.90
2022-11-08T19:01:41.787Z,72.97
2022-11-08T19:04:31.412Z,73.21
2022-11-08T19:07:21.393Z,73.31
2022-11-08T19:10:11.453Z,73.67
2022-11-08T19:13:01.147Z,73.82
2022-11-08T19:15:57.968Z,73.85
2022-11-08T19:18:49.117Z,74.32
2022-11-08T19:21:41.236Z,74.50
2022-11-08T19:24:30.412Z,74.42
2022-11-08T19:27:20.843Z,74.46
2022-11-08T19:30:10.017Z,74.40
2022-11-08T19:33:01.165Z,74.63
2022-11-08T19:35:52.115Z,74.83
2022-11-08T19:38:42.520Z,75.22
2022-11-08T19:41:32.033Z,75.38
2022-11-08T19:44:21.607Z,75.60
2022-11-08T19:47:11.180Z,75.86
2022-11-08T19:50:00.820Z,76.04
2022-11-08T19:52:51.502Z,76.44
2022-11-08T19:55:39.931Z,76.46
2022-11-08T19:58:30.615Z,76.60
2022-11-08T20:01:22.731Z,76.81
2022-11-08T20:04:13.944Z,76.92
2022-11-08T20:07:03.456Z,77.22
2022-11-08T20:09:54.277Z,77.27
2022-11-08T20:12:43.711Z,77.56
2022-11-08T20:15:33.102Z,77.47
2022-11-08T20:18:22.603Z,77.65
2022-11-08T20:21:15.419Z,77.63
2022-11-08T20:24:05.833Z,77.79
2022-11-08T20:26:54.847Z,77.96
2022-11-08T20:29:44.347Z,78.48
2022-11-08T20:32:33.756Z,78.76
2022-11-08T20:35:23.734Z,78.51
2022-11-08T20:38:13.164Z,78.69
2022-11-08T20:41:03.687Z,78.91
2022-11-08T20:43:52.016Z,78.97
2022-11-08T20:46:41.588Z,79.20
2022-11-08T20:49:31.082Z,79.37
2022-11-08T20:52:22.879Z,79.43
2022-11-08T20:55:12.289Z,79.40
2022-11-08T20:58:01.983Z,79.51
2022-11-08T21:00:58.430Z,80.04
2022-11-08T21:03:48.843Z,80.28
2022-11-08T21:06:40.135Z,80.31
2022-11-08T21:09:40.466Z,80.44
2022-11-08T21:12:41.329Z,80.83
2022-11-08T21:15:30.819Z,80.85
2022-11-08T21:18:20.881Z,80.75
2022-11-08T21:21:11.101Z,81.00
2022-11-08T21:24:00.266Z,80.96
2022-11-08T21:26:49.864Z,80.95
2022-11-08T21:29:39.791Z,81.26
2022-11-08T21:32:29.291Z,81.50
2022-11-08T21:35:18.841Z,81.46
2022-11-08T21:38:08.682Z,81.42
2022-11-08T21:41:04.907Z,81.40
2022-11-08T21:43:53.947Z,81.43
2022-11-08T21:46:43.590Z,81.44
2022-11-08T21:49:32.962Z,81.49
2022-11-08T21:52:22.593Z,81.68
2022-11-08T21:55:12.762Z,81.86
2022-11-08T21:58:03.324Z,81.89
2022-11-08T22:00:52.768Z,81.95
2022-11-08T22:03:42.339Z,81.88
2022-11-08T22:06:31.911Z,81.96
2022-11-08T22:09:21.486Z,82.12
2022-11-08T22:12:15.919Z,82.26
2022-11-08T22:15:15.803Z,82.25
2022-11-08T22:18:36.848Z,82.28
2022-11-08T22:21:39.624Z,82.42
2022-11-08T22:24:30.689Z,82.74
2022-11-08T22:27:21.707Z,82.93
2022-11-08T22:30:16.906Z,82.88
2022-11-08T22:33:09.415Z,83.05
2022-11-08T22:35:59.380Z,83.00
2022-11-08T22:38:49.363Z,83.12
2022-11-08T22:41:38.950Z,83.46
2022-11-08T22:44:30.859Z,83.64
2022-11-08T22:47:23.806Z,83.64
2022-11-08T22:50:16.693Z,83.60
2022-11-08T22:53:07.550Z,83.67
2022-11-08T22:55:57.371Z,83.74
2022-11-08T22:58:49.701Z,83.72
2022-11-08T23:01:39.428Z,83.81
2022-11-08T23:04:35.035Z,83.61
2022-11-08T23:07:54.158Z,83.72
2022-11-08T23:11:09.108Z,83.73
2022-11-08T23:14:19.647Z,83.66
2022-11-08T23:17:08.409Z,83.74
2022-11-08T23:20:23.552Z,83.66
2022-11-08T23:23:31.571Z,83.59
2022-11-08T23:26:45.594Z,83.72
2022-11-08T23:29:53.752Z,83.73
2022-11-08T23:32:51.045Z,83.73
2022-11-08T23:36:03.385Z,83.45
2022-11-08T23:38:53.826Z,83.68
2022-11-08T23:42:02.323Z,83.71
2022-11-08T23:44:52.537Z,83.59
2022-11-08T23:47:42.709Z,83.56
2022-11-08T23:50:40.918Z,83.67
2022-11-08T23:53:43.714Z,83.83
2022-11-08T23:56:34.167Z,83.87
2022-11-08T23:59:23.740Z,83.82
